Vliegveld raporten

 

EHGR - Gilze-Rijen Rnla, Netherlands
Distance from station: WZW 7km
Updated: 17-08-2018 18:55
Helder
Helder
 Wind van NW
Wind: NW 15 km/h
Temperatuur: 22°C
Dauwpunt: 10°C
Vochtigheid: 47%
Barometer: 1019 hPa
Clouds: Helder
Visibility: 10 km
2018/08/17 16:55 EHGR 171655Z AUTO 32008KT 270V340 9999 NCD 22/10 Q1019 BLU
EHEH - Eindhoven Rnlafb, Netherlands
Distance from station: OZO 30km
Updated: 17-08-2018 18:55
Meestal bewolkt
Meestal bewolkt
 Wind van WNW
Wind: WNW 15 km/h
Temperatuur: 23°C
Dauwpunt: 11°C
Vochtigheid: 47%
Barometer: 1019 hPa
Clouds: Meestal bewolkt
Visibility: 10 km
Cloud details: Meestal bewolkt 1433 m
Meestal bewolkt 1615 m
Meestal bewolkt 2012 m
2018/08/17 16:55 EHEH 171655Z AUTO 29008KT 250V020 9999 BKN047 BKN053 BKN066 23/11 Q1019 BLU 30006KT CAVOK
EHVK - Volkel Rnlafb, Netherlands
Distance from station: O 48km
Updated: 17-08-2018 18:55
Meestal bewolkt
Meestal bewolkt
 Wind van NW
Wind: NW 9 km/h
Temperatuur: 22°C
Dauwpunt: 12°C
Vochtigheid: 53%
Barometer: 1019 hPa
Clouds: Meestal bewolkt
Visibility: 10 km
Cloud details: Meestal bewolkt 2012 m
2018/08/17 16:55 EHVK 171655Z AUTO 31005KT 260V340 9999 BKN066 22/12 Q1019 BLU
 
EHWO - Woensdrecht Rnla, Netherlands
Distance from station: WZW 50km
Updated: 17-08-2018 18:55
Helder
Helder
 Wind van WNW
Wind: WNW 15 km/h
Temperatuur: 21°C
Dauwpunt: 11°C
Vochtigheid: 53%
Barometer: 1019 hPa
Clouds: Helder
Visibility: 10 km
2018/08/17 16:55 EHWO 171655Z AUTO 29008KT 240V330 9999 NCD 21/11 Q1019 BLU
EHRD - Rotterdam Airpor, Netherlands
Distance from station: NW 56km
Updated: 17-08-2018 18:55
Helder
Helder
 Wind van WNW
Wind: WNW 15 km/h
Temperatuur: 20°C
Dauwpunt: 12°C
Vochtigheid: 60%
Barometer: 1019 hPa
Clouds: Helder
Visibility: 10 km
2018/08/17 16:55 EHRD 171655Z AUTO 29008KT 240V340 9999 NCD 20/12 Q1019 NOSIG
EHDL - Deelen Rnlafb, Netherlands
Distance from station: NO 80km
Updated: 17-08-2018 18:55
Enkele wolken
Enkele wolken
 Wind van NNW
Wind: NNW 11 km/h
Temperatuur: 21°C
Dauwpunt: 11°C
Vochtigheid: 53%
Barometer: 1019 hPa
Clouds: Enkele wolken
Visibility: 10 km
Cloud details: Enkele wolken 1981 m
2018/08/17 16:55 EHDL 171655Z AUTO 33006KT 290V010 9999 FEW065 21/11 Q1019 BLU
 
EHAM - Amsterdam/Schiph, Netherlands
Distance from station: N 83km
Updated: 17-08-2018 18:55
Enkele wolken
Enkele wolken
 Wind van W
Wind: W 17 km/h
Temperatuur: 20°C
Dauwpunt: 11°C
Vochtigheid: 56%
Barometer: 1019 hPa
Clouds: Enkele wolken
Visibility: 10 km
Cloud details: Enkele wolken 1219 m
2018/08/17 16:55 EHAM 171655Z 28009KT 250V310 9999 FEW040 20/11 Q1019 NOSIG
EHBK - Zuid-Limburg/Bee, Netherlands
Distance from station: ZO 91km
Updated: 17-08-2018 18:55
Gedeeltelijk bewolkt
Gedeeltelijk bewolkt
 Wind van NNW
Wind: NNW 7 km/h
Temperatuur: 21°C
Dauwpunt: 12°C
Vochtigheid: 57%
Barometer: 1019 hPa
Clouds: Gedeeltelijk bewolkt
Visibility: 10 km
2018/08/17 16:55 EHBK 171655Z AUTO 33004KT 290V010 9999 NSC 21/12 Q1019 NOSIG
EHFS - Vlissingen, Netherlands
Distance from station: W 99km
Updated: 17-08-2018 18:55
Gedeeltelijk bewolkt
Gedeeltelijk bewolkt
 Wind van W
Wind: W 17 km/h
Temperatuur: 20°C
Dauwpunt: 11°C
Vochtigheid: 56%
Barometer: 1020 hPa
Clouds: Gedeeltelijk bewolkt
Visibility: 10 km
2018/08/17 16:55 EHFS 171655Z AUTO 27009KT 9999 NSC 20/11 Q1020 W///H///
 
EHSC - Goeree Le Sea, Netherlands
Distance from station: WNW 100km
Updated: 17-08-2018 18:55

 Wind van WZW
Wind: WZW 17 km/h
Temperatuur: 19°C
Dauwpunt: 12°C
Vochtigheid: 64%
Barometer: 1019 hPa
Visibility: 10 km
2018/08/17 16:55 EHSC 171655Z AUTO 25009KT 9999 ///////// 19/12 Q1019 W21/H5
EBBL - Kleine-Brogel(Ba, Belgium
Distance from station: ZO 56km
Updated: 17-08-2018 18:55
Gedeeltelijk bewolkt
Gedeeltelijk bewolkt
 Wind van N
Wind: N 11 km/h
Temperatuur: 22°C
Dauwpunt: 11°C
Vochtigheid: 50%
Barometer: 1019 hPa
Clouds: Gedeeltelijk bewolkt
Visibility: 10 km
Cloud details: Enkele wolken 1433 m
Gedeeltelijk bewolkt 2042 m
2018/08/17 16:55 EBBL 171655Z AUTO 01006KT 9999 FEW047/// SCT067/// 22/11 Q1019 BLU
EBAW - Antwerp/Deurne, Belgium
Distance from station: ZW 57km
Updated: 17-08-2018 18:50
Helder
Helder
 Wind van WNW
Wind: WNW 19 km/h
Temperatuur: 21°C
Dauwpunt: 11°C
Vochtigheid: 53%
Barometer: 1020 hPa
Overzicht: Helder
Visibility: greater than 10 km
2018/08/17 16:50 EBAW 171650Z 30010KT CAVOK 21/11 Q1020 NOSIG
 
EBDT - Schaffen, Belgium
Distance from station: Z 63km
Updated: 17-08-2018 18:55
Meestal bewolkt
Meestal bewolkt
 Wind van N
Wind: N 13 km/h
Temperatuur: 21°C
Dauwpunt: 12°C
Vochtigheid: 57%
Barometer: 1019 hPa
Clouds: Meestal bewolkt
Visibility: 10 km
Cloud details: Enkele wolken 1372 m
Meestal bewolkt 1676 m
2018/08/17 16:55 EBDT 171655Z AUTO 35007KT 9999 FEW045/// BKN055/// 21/12 Q1019 BLU
EBBR - Brussels Nationa, Belgium
Distance from station: ZZW 83km
Updated: 17-08-2018 18:50
Helder
Helder
 Wind van NNW
Wind: NNW 13 km/h
Temperatuur: 21°C
Dauwpunt: 12°C
Vochtigheid: 57%
Barometer: 1020 hPa
Overzicht: Helder
Visibility: greater than 10 km
2018/08/17 16:50 EBBR 171650Z 33007KT 290V010 CAVOK 21/12 Q1020 NOSIG
EBBE - Beauvechain (baf, Belgium
Distance from station: Z 94km
Updated: 17-08-2018 18:55
Meestal bewolkt
Meestal bewolkt
 Wind van N
Wind: N 9 km/h
Temperatuur: 21°C
Dauwpunt: 12°C
Vochtigheid: 57%
Barometer: 1020 hPa
Clouds: Meestal bewolkt
Visibility: 10 km
Cloud details: Gedeeltelijk bewolkt 1372 m
Meestal bewolkt 1676 m
2018/08/17 16:55 EBBE 171655Z AUTO 01005KT 9999 SCT045/// BKN055/// 21/12 Q1020 BLU
 
EDLV - Niederrhein, Germany
Distance from station: O 79km
Updated: 17-08-2018 18:50
Helder
Helder
 Wind van varies
Wind: varies 7 km/h
Temperatuur: 23°C
Dauwpunt: 11°C
Vochtigheid: 47%
Barometer: 1019 hPa
Overzicht: Helder
Visibility: greater than 10 km
2018/08/17 16:50 EDLV 171650Z VRB04KT CAVOK 23/11 Q1019
ETNG - Geilenkirchen(Na, Germany
Distance from station: ZO 99km
Updated: 17-08-2018 17:50
NOT Current
Helder
Helder
 Wind van NW
Wind: NW 11 km/h
Temperatuur: 24°C
Dauwpunt: 10°C
Vochtigheid: 41%
Barometer: 1019 hPa
Overzicht: Helder
Visibility: greater than 10 km
2018/08/17 15:50 ETNG 171550Z 31006KT CAVOK 24/10 Q1019 NOSIG